createdAt,value
2022-09-26T00:00:19.655Z,100162.53
2022-09-26T00:02:21.437Z,100113.97
2022-09-26T00:04:31.809Z,100161.16
2022-09-26T00:06:34.789Z,100158.50
2022-09-26T00:08:37.697Z,100145.44
2022-09-26T00:10:39.435Z,100154.47
2022-09-26T00:12:41.430Z,100154.78
2022-09-26T00:14:43.114Z,100151.84
2022-09-26T00:16:45.509Z,100142.69
2022-09-26T00:18:52.206Z,100130.06
2022-09-26T00:20:54.320Z,100143.94
2022-09-26T00:22:56.025Z,100145.75
2022-09-26T00:24:58.030Z,100138.09
2022-09-26T00:26:59.723Z,100145.47
2022-09-26T00:29:03.575Z,100138.94
2022-09-26T00:31:07.854Z,100143.09
2022-09-26T00:33:09.612Z,100142.81
2022-09-26T00:35:11.339Z,100136.16
2022-09-26T00:37:13.176Z,100135.03
2022-09-26T00:39:16.170Z,100120.63
2022-09-26T00:41:18.129Z,100125.19
2022-09-26T00:43:35.241Z,100130.31
2022-09-26T00:45:37.037Z,100127.78
2022-09-26T00:47:50.580Z,100139.69
2022-09-26T00:49:58.121Z,100137.19
2022-09-26T00:52:15.739Z,100137.47
2022-09-26T00:54:19.225Z,100136.09
2022-09-26T00:56:28.324Z,100133.31
2022-09-26T00:58:34.820Z,100133.72
2022-09-26T01:00:42.025Z,100130.38
2022-09-26T01:02:47.111Z,100132.19
2022-09-26T01:04:49.178Z,100136.91
2022-09-26T01:06:50.882Z,100128.34
2022-09-26T01:09:12.630Z,100121.13
2022-09-26T01:11:16.987Z,100123.88
2022-09-26T01:13:20.009Z,100090.28
2022-09-26T01:15:22.190Z,100119.03
2022-09-26T01:17:25.213Z,100130.81
2022-09-26T01:19:41.839Z,100128.97
2022-09-26T01:22:27.692Z,100120.78
2022-09-26T01:25:06.806Z,100131.69
2022-09-26T01:27:41.784Z,100121.63
2022-09-26T01:30:14.662Z,100123.50
2022-09-26T01:32:44.744Z,100130.47
2022-09-26T01:35:06.644Z,100123.25
2022-09-26T01:37:31.350Z,100122.72
2022-09-26T01:39:48.582Z,100119.13
2022-09-26T01:42:15.662Z,100117.88
2022-09-26T01:44:35.762Z,100117.88
2022-09-26T01:46:51.342Z,100121.03
2022-09-26T01:49:02.578Z,100118.13
2022-09-26T01:51:27.770Z,100117.56
2022-09-26T01:54:19.281Z,100114.69
2022-09-26T01:56:24.560Z,100111.88
2022-09-26T01:58:48.171Z,100099.41
2022-09-26T02:00:51.808Z,100104.78
2022-09-26T02:02:55.328Z,100093.44
2022-09-26T02:05:03.905Z,100103.00
2022-09-26T02:07:29.256Z,100103.00
2022-09-26T02:09:43.208Z,100093.72
2022-09-26T02:11:49.355Z,100106.63
2022-09-26T02:13:51.069Z,100096.59
2022-09-26T02:16:00.534Z,100089.53
2022-09-26T02:18:21.519Z,100089.16
2022-09-26T02:20:29.648Z,100087.06
2022-09-26T02:22:34.324Z,100097.78
2022-09-26T02:24:36.141Z,100089.88
2022-09-26T02:26:38.272Z,100093.31
2022-09-26T02:28:40.305Z,100091.78
2022-09-26T02:30:44.825Z,100083.94
2022-09-26T02:32:46.756Z,100081.28
2022-09-26T02:34:49.186Z,100082.81
2022-09-26T02:36:52.081Z,100080.72
2022-09-26T02:38:53.837Z,100086.53
2022-09-26T02:41:10.936Z,100082.81
2022-09-26T02:43:54.186Z,100083.25
2022-09-26T02:46:16.394Z,100076.31
2022-09-26T02:48:42.363Z,100066.34
2022-09-26T02:51:15.846Z,100071.59
2022-09-26T02:53:53.185Z,100068.66
2022-09-26T02:56:26.634Z,100070.03
2022-09-26T02:58:37.573Z,100073.91
2022-09-26T03:00:58.060Z,100072.66
2022-09-26T03:03:17.534Z,100079.19
2022-09-26T03:05:29.761Z,100066.50
2022-09-26T03:07:38.255Z,100070.81
2022-09-26T03:09:42.151Z,100072.31
2022-09-26T03:11:45.104Z,100061.06
2022-09-26T03:13:50.695Z,100065.25
2022-09-26T03:15:56.513Z,100043.47
2022-09-26T03:18:00.149Z,100060.09
2022-09-26T03:20:17.622Z,100055.75
2022-09-26T03:22:19.615Z,100050.81
2022-09-26T03:24:23.900Z,100055.53
2022-09-26T03:26:28.047Z,100051.25
2022-09-26T03:28:34.010Z,100050.69
2022-09-26T03:30:38.606Z,100053.63
2022-09-26T03:32:40.467Z,100045.34
2022-09-26T03:34:42.338Z,100054.47
2022-09-26T03:36:44.072Z,100053.34
2022-09-26T03:38:45.961Z,100051.66
2022-09-26T03:40:48.244Z,100052.41
2022-09-26T03:42:49.972Z,100047.03
2022-09-26T03:44:51.940Z,100044.44
2022-09-26T03:46:54.026Z,100033.78
2022-09-26T03:48:55.717Z,100036.41
2022-09-26T03:51:12.425Z,100037.38
2022-09-26T03:53:14.401Z,100034.03
2022-09-26T03:55:16.194Z,100039.75
2022-09-26T03:57:18.232Z,100043.09
2022-09-26T03:59:20.041Z,100015.38
2022-09-26T04:01:22.827Z,100028.09
2022-09-26T04:03:30.046Z,100021.34
2022-09-26T04:05:31.817Z,100034.63
2022-09-26T04:07:33.508Z,100028.72
2022-09-26T04:09:35.615Z,100021.09
2022-09-26T04:11:37.833Z,100036.78
2022-09-26T04:13:51.285Z,100023.06
2022-09-26T04:15:58.841Z,100025.44
2022-09-26T04:18:00.700Z,100034.44
2022-09-26T04:20:02.738Z,100023.22
2022-09-26T04:22:04.998Z,100022.94
2022-09-26T04:24:08.446Z,100014.03
2022-09-26T04:26:20.206Z,100018.66
2022-09-26T04:28:24.257Z,100009.38
2022-09-26T04:30:26.049Z,100015.06
2022-09-26T04:32:27.756Z,100001.34
2022-09-26T04:34:29.527Z,100002.03
2022-09-26T04:36:32.060Z,100004.53
2022-09-26T04:38:33.846Z,100012.97
2022-09-26T04:40:42.722Z,100009.25
2022-09-26T04:42:45.189Z,100005.91
2022-09-26T04:44:46.912Z,100014.50
2022-09-26T04:46:48.663Z,100007.97
2022-09-26T04:48:51.901Z,100018.00
2022-09-26T04:50:53.670Z,100015.19
2022-09-26T04:52:55.369Z,100016.31
2022-09-26T04:54:57.371Z,100019.50
2022-09-26T04:57:00.359Z,100010.16
2022-09-26T04:59:02.071Z,100016.81
2022-09-26T05:01:06.608Z,100014.72
2022-09-26T05:03:08.354Z,100012.91
2022-09-26T05:05:10.079Z,100017.63
2022-09-26T05:07:11.913Z,100011.47
2022-09-26T05:09:13.759Z,100008.56
2022-09-26T05:11:17.211Z,100013.72
2022-09-26T05:13:19.347Z,100007.25
2022-09-26T05:15:21.291Z,100007.34
2022-09-26T05:17:23.071Z,100005.91
2022-09-26T05:19:24.851Z,100008.09
2022-09-26T05:21:26.716Z,100000.91
2022-09-26T05:23:28.497Z,100000.41
2022-09-26T05:25:36.682Z,100001.84
2022-09-26T05:27:38.472Z,100006.03
2022-09-26T05:29:40.145Z,100004.88
2022-09-26T05:31:42.183Z,99997.38
2022-09-26T05:33:43.997Z,99996.78
2022-09-26T05:35:52.608Z,99987.72
2022-09-26T05:38:04.751Z,99993.16
2022-09-26T05:40:06.719Z,99997.03
2022-09-26T05:42:08.513Z,99990.91
2022-09-26T05:44:10.472Z,99996.59
2022-09-26T05:46:12.632Z,99990.59
2022-09-26T05:48:14.363Z,99989.13
2022-09-26T05:50:16.269Z,99995.84
2022-09-26T05:52:18.215Z,99984.16
2022-09-26T05:54:19.996Z,99975.31
2022-09-26T05:56:21.857Z,99990.16
2022-09-26T05:58:23.566Z,99987.78
2022-09-26T06:00:28.374Z,99976.97
2022-09-26T06:02:30.320Z,99988.16
2022-09-26T06:04:32.557Z,99982.94
2022-09-26T06:06:34.294Z,99987.00
2022-09-26T06:08:37.559Z,99985.72
2022-09-26T06:10:39.473Z,99982.13
2022-09-26T06:12:41.150Z,99990.47
2022-09-26T06:14:42.964Z,99990.03
2022-09-26T06:16:44.755Z,99992.28
2022-09-26T06:18:48.453Z,99994.22
2022-09-26T06:20:50.156Z,100003.19
2022-09-26T06:22:52.097Z,100005.16
2022-09-26T06:24:53.859Z,100003.31
2022-09-26T06:26:55.618Z,100001.97
2022-09-26T06:28:59.077Z,100001.50
2022-09-26T06:31:01.263Z,100009.94
2022-09-26T06:33:03.225Z,100011.97
2022-09-26T06:35:06.537Z,100009.88
2022-09-26T06:37:08.248Z,100009.06
2022-09-26T06:39:10.153Z,100015.72
2022-09-26T06:41:11.927Z,100001.00
2022-09-26T06:43:13.825Z,100000.16
2022-09-26T06:45:15.735Z,99999.13
2022-09-26T06:47:18.048Z,99970.03
2022-09-26T06:49:19.908Z,100011.59
2022-09-26T06:51:21.693Z,100004.13
2022-09-26T06:53:23.700Z,100012.44
2022-09-26T06:55:25.408Z,100004.81
2022-09-26T06:57:27.230Z,100000.78
2022-09-26T06:59:28.986Z,100006.50
2022-09-26T07:01:30.753Z,99999.06
2022-09-26T07:03:32.822Z,100008.78
2022-09-26T07:05:34.603Z,99999.66
2022-09-26T07:07:42.674Z,99996.47
2022-09-26T07:09:44.535Z,100000.78
2022-09-26T07:12:14.045Z,100005.34
2022-09-26T07:14:11.282Z,100009.88
2022-09-26T07:16:13.487Z,100007.63
2022-09-26T07:18:15.427Z,99998.97
2022-09-26T07:20:19.812Z,99999.84
2022-09-26T07:22:21.677Z,99998.69
2022-09-26T07:24:23.451Z,99988.88
2022-09-26T07:26:25.167Z,99994.44
2022-09-26T07:28:27.163Z,99999.66
2022-09-26T07:30:29.012Z,99991.91
2022-09-26T07:32:31.058Z,99983.72
2022-09-26T07:34:32.859Z,99988.81
2022-09-26T07:36:34.727Z,99988.13
2022-09-26T07:38:36.778Z,99977.91
2022-09-26T07:40:38.757Z,99981.56
2022-09-26T07:42:40.533Z,99989.47
2022-09-26T07:47:04.506Z,99973.16
2022-09-26T07:49:06.292Z,99937.03
2022-09-26T07:51:09.353Z,99972.16
2022-09-26T07:53:11.278Z,99972.47
2022-09-26T07:55:16.294Z,99973.25
2022-09-26T07:57:17.978Z,99967.94
2022-09-26T07:59:19.930Z,99972.00
2022-09-26T08:01:21.885Z,99966.84
2022-09-26T08:03:24.140Z,99968.31
2022-09-26T08:05:26.135Z,99973.47
2022-09-26T08:07:27.980Z,99936.47
2022-09-26T08:09:29.706Z,99974.94
2022-09-26T08:11:31.582Z,99968.78
2022-09-26T08:13:33.547Z,99964.53
2022-09-26T08:15:35.282Z,99964.16
2022-09-26T08:17:37.125Z,99959.41
2022-09-26T08:19:39.070Z,99967.03
2022-09-26T08:21:40.759Z,99963.63
2022-09-26T08:23:42.540Z,99959.31
2022-09-26T08:25:44.763Z,99956.31
2022-09-26T08:27:46.450Z,99956.16
2022-09-26T08:29:48.951Z,99953.63
2022-09-26T08:31:50.771Z,99950.19
2022-09-26T08:33:52.550Z,99947.19
2022-09-26T08:35:54.531Z,99947.16
2022-09-26T08:38:01.049Z,99943.59
2022-09-26T08:40:02.879Z,99951.41
2022-09-26T08:42:10.738Z,99952.97
2022-09-26T08:44:56.755Z,99936.97
2022-09-26T08:47:03.290Z,99938.94
2022-09-26T08:49:26.401Z,99943.50
2022-09-26T08:51:44.444Z,99936.38
2022-09-26T08:53:56.034Z,99935.06
2022-09-26T08:56:00.751Z,99936.41
2022-09-26T08:58:10.820Z,99941.97
2022-09-26T09:00:22.531Z,99933.34
2022-09-26T09:02:40.446Z,99934.56
2022-09-26T09:04:58.011Z,99937.50
2022-09-26T09:07:07.264Z,99934.81
2022-09-26T09:09:14.817Z,99932.94
2022-09-26T09:11:37.467Z,99928.31
2022-09-26T09:13:58.079Z,99927.09
2022-09-26T09:16:40.686Z,99923.31
2022-09-26T09:19:00.035Z,99919.09
2022-09-26T09:21:01.670Z,99914.91
2022-09-26T09:23:27.917Z,99915.03
2022-09-26T09:25:42.532Z,99916.16
2022-09-26T09:27:53.831Z,99918.41
2022-09-26T09:30:01.352Z,99924.66
2022-09-26T09:32:04.928Z,99918.31
2022-09-26T09:34:10.181Z,99925.06
2022-09-26T09:36:25.666Z,99917.19
2022-09-26T09:38:30.538Z,99917.34
2022-09-26T09:40:41.377Z,99922.63
2022-09-26T09:43:06.126Z,99912.44
2022-09-26T09:45:33.423Z,99916.34
2022-09-26T09:47:39.135Z,99917.19
2022-09-26T09:49:42.699Z,99908.69
2022-09-26T09:52:02.761Z,99909.78
2022-09-26T09:54:10.273Z,99912.41
2022-09-26T09:56:12.091Z,99908.66
2022-09-26T09:58:34.586Z,99905.97
2022-09-26T10:00:42.218Z,99901.75
2022-09-26T10:02:46.945Z,99907.56
2022-09-26T10:05:00.334Z,99906.41
2022-09-26T10:07:02.417Z,99907.63
2022-09-26T10:09:40.370Z,99906.66
2022-09-26T10:11:42.916Z,99899.34
2022-09-26T10:13:45.431Z,99897.41
2022-09-26T10:16:00.025Z,99889.72
2022-09-26T10:18:24.046Z,99897.94
2022-09-26T10:20:39.632Z,99901.84
2022-09-26T10:22:43.666Z,99904.97
2022-09-26T10:24:47.434Z,99901.53
2022-09-26T10:26:49.147Z,99903.56
2022-09-26T10:28:54.575Z,99899.75
2022-09-26T10:31:05.531Z,99895.84
2022-09-26T10:33:24.684Z,99889.13
2022-09-26T10:35:43.157Z,99891.28
2022-09-26T10:38:07.114Z,99888.09
2022-09-26T10:40:27.948Z,99882.19
2022-09-26T10:42:32.417Z,99881.13
2022-09-26T10:44:35.454Z,99880.97
2022-09-26T10:46:37.385Z,99879.50
2022-09-26T10:48:51.199Z,99880.88
2022-09-26T10:50:55.859Z,99873.72
2022-09-26T10:53:02.997Z,99873.38
2022-09-26T10:55:16.713Z,99872.56
2022-09-26T10:57:23.520Z,99870.81
2022-09-26T10:59:29.520Z,99863.16
2022-09-26T11:01:32.271Z,99864.53
2022-09-26T11:03:41.039Z,99870.34
2022-09-26T11:05:45.018Z,99865.78
2022-09-26T11:07:48.372Z,99857.69
2022-09-26T11:09:50.932Z,99855.00
2022-09-26T11:11:53.473Z,99863.06
2022-09-26T11:14:03.617Z,99857.41
2022-09-26T11:16:10.053Z,99852.72
2022-09-26T11:18:23.121Z,99851.91
2022-09-26T11:20:44.230Z,99853.69
2022-09-26T11:22:54.577Z,99853.53
2022-09-26T11:25:05.234Z,99850.66
2022-09-26T11:27:21.433Z,99850.25
2022-09-26T11:29:37.074Z,99849.00
2022-09-26T11:31:41.552Z,99842.22
2022-09-26T11:33:43.280Z,99847.13
2022-09-26T11:36:09.200Z,99846.84
2022-09-26T11:38:42.818Z,99851.31
2022-09-26T11:40:59.532Z,99838.56
2022-09-26T11:43:29.300Z,99844.66
2022-09-26T11:46:02.937Z,99834.97
2022-09-26T11:48:26.611Z,99836.09
2022-09-26T11:50:40.550Z,99832.28
2022-09-26T11:53:04.767Z,99839.06
2022-09-26T11:55:23.758Z,99835.16
2022-09-26T11:57:53.096Z,99833.94
2022-09-26T12:00:08.937Z,99829.59
2022-09-26T12:02:30.816Z,99830.25
2022-09-26T12:04:59.925Z,99828.94
2022-09-26T12:07:22.856Z,99828.22
2022-09-26T12:09:58.006Z,99820.84
2022-09-26T12:12:27.135Z,99818.09
2022-09-26T12:15:10.591Z,99818.03
2022-09-26T12:17:30.576Z,99813.91
2022-09-26T12:19:38.846Z,99819.69
2022-09-26T12:22:11.604Z,99814.50
2022-09-26T12:24:27.618Z,99811.94
2022-09-26T12:27:40.070Z,99806.44
2022-09-26T12:30:04.491Z,99809.03
2022-09-26T12:32:33.702Z,99801.69
2022-09-26T12:35:05.974Z,99793.78
2022-09-26T12:37:46.096Z,99799.56
2022-09-26T12:40:01.321Z,99794.69
2022-09-26T12:42:14.928Z,99787.47
2022-09-26T12:44:41.773Z,99793.13
2022-09-26T12:47:07.036Z,99782.88
2022-09-26T12:49:40.095Z,99779.56
2022-09-26T12:51:51.548Z,99777.81
2022-09-26T12:54:17.636Z,99780.06
2022-09-26T12:56:36.271Z,99778.91
2022-09-26T12:58:43.966Z,99776.66
2022-09-26T13:01:01.168Z,99775.88
2022-09-26T13:03:24.376Z,99769.88
2022-09-26T13:05:47.532Z,99768.50
2022-09-26T13:08:18.525Z,99775.25
2022-09-26T13:10:26.367Z,99770.56
2022-09-26T13:13:01.656Z,99765.84
2022-09-26T13:15:19.308Z,99762.22
2022-09-26T13:17:23.901Z,99766.06
2022-09-26T13:19:54.604Z,99770.63
2022-09-26T13:22:01.072Z,99770.06
2022-09-26T13:24:11.606Z,99771.69
2022-09-26T13:26:29.597Z,99767.72
2022-09-26T13:28:55.471Z,99769.03
2022-09-26T13:31:35.822Z,99765.84
2022-09-26T13:34:03.568Z,99753.78
2022-09-26T13:36:09.056Z,99753.97
2022-09-26T13:38:43.157Z,99760.75
2022-09-26T13:40:57.226Z,99750.88
2022-09-26T13:43:14.154Z,99757.66
2022-09-26T13:45:27.877Z,99749.41
2022-09-26T13:47:45.610Z,99749.63
2022-09-26T13:50:13.817Z,99746.94
2022-09-26T13:52:33.993Z,99747.09
2022-09-26T13:54:46.456Z,99742.69
2022-09-26T13:56:52.121Z,99743.66
2022-09-26T13:59:31.277Z,99740.19
2022-09-26T14:01:32.967Z,99735.41
2022-09-26T14:03:39.287Z,99735.16
2022-09-26T14:05:44.037Z,99741.97
2022-09-26T14:07:53.338Z,99734.72
2022-09-26T14:10:01.095Z,99732.69
2022-09-26T14:12:22.057Z,99728.75
2022-09-26T14:14:26.263Z,99720.34
2022-09-26T14:16:27.902Z,99727.88
2022-09-26T14:19:07.065Z,99725.03
2022-09-26T14:21:21.299Z,99724.19
2022-09-26T14:23:43.072Z,99720.69
2022-09-26T14:25:44.868Z,99723.84
2022-09-26T14:27:46.833Z,99731.00
2022-09-26T14:30:10.306Z,99728.19
2022-09-26T14:32:43.690Z,99724.19
2022-09-26T14:34:53.946Z,99723.97
2022-09-26T14:37:01.687Z,99733.38
2022-09-26T14:39:05.273Z,99722.63
2022-09-26T14:41:16.817Z,99729.97
2022-09-26T14:43:19.880Z,99721.81
2022-09-26T14:45:25.979Z,99729.66
2022-09-26T14:47:39.848Z,99726.38
2022-09-26T14:49:42.074Z,99730.03
2022-09-26T14:51:49.249Z,99739.50
2022-09-26T14:53:53.914Z,99729.06
2022-09-26T14:56:06.154Z,99732.25
2022-09-26T14:58:49.546Z,99727.88
2022-09-26T15:00:54.651Z,99737.25
2022-09-26T15:03:00.987Z,99731.31
2022-09-26T15:05:12.206Z,99725.19
2022-09-26T15:07:25.437Z,99726.00
2022-09-26T15:09:40.689Z,99717.41
2022-09-26T15:11:47.889Z,99723.66
2022-09-26T15:13:52.449Z,99720.50
2022-09-26T15:16:19.224Z,99724.09
2022-09-26T15:18:27.057Z,99721.41
2022-09-26T15:20:31.197Z,99719.38
2022-09-26T15:22:35.454Z,99718.09
2022-09-26T15:24:37.285Z,99718.06
2022-09-26T15:26:39.081Z,99721.63
2022-09-26T15:28:40.862Z,99719.69
2022-09-26T15:30:42.806Z,99726.50
2022-09-26T15:32:47.214Z,99722.59
2022-09-26T15:34:49.032Z,99724.84
2022-09-26T15:36:56.703Z,99710.06
2022-09-26T15:38:58.807Z,99716.56
2022-09-26T15:41:02.161Z,99715.88
2022-09-26T15:43:10.204Z,99720.03
2022-09-26T15:45:22.625Z,99719.69
2022-09-26T15:47:41.481Z,99722.41
2022-09-26T15:49:43.233Z,99714.41
2022-09-26T15:51:45.426Z,99725.09
2022-09-26T15:53:55.863Z,99723.69
2022-09-26T15:55:57.534Z,99719.19
2022-09-26T15:58:02.290Z,99721.50
2022-09-26T16:00:04.324Z,99722.16
2022-09-26T16:02:31.075Z,99724.50
2022-09-26T16:04:33.329Z,99720.06
2022-09-26T16:06:38.086Z,99721.00
2022-09-26T16:08:42.660Z,99719.09
2022-09-26T16:10:54.129Z,99710.50
2022-09-26T16:12:58.216Z,99704.66
2022-09-26T16:15:18.114Z,99700.75
2022-09-26T16:17:24.993Z,99713.06
2022-09-26T16:19:35.241Z,99701.31
2022-09-26T16:21:36.947Z,99705.63
2022-09-26T16:23:49.575Z,99708.06
2022-09-26T16:25:53.526Z,99712.59
2022-09-26T16:27:59.643Z,99705.84
2022-09-26T16:30:05.262Z,99705.22
2022-09-26T16:32:19.640Z,99706.69
2022-09-26T16:34:24.486Z,99706.91
2022-09-26T16:36:27.925Z,99700.38
2022-09-26T16:38:34.146Z,99709.47
2022-09-26T16:40:36.552Z,99700.44
2022-09-26T16:42:38.432Z,99708.09
2022-09-26T16:44:42.191Z,99712.66
2022-09-26T16:46:50.302Z,99710.59
2022-09-26T16:48:52.070Z,99719.06
2022-09-26T16:51:12.049Z,99714.53
2022-09-26T16:53:13.990Z,99712.25
2022-09-26T16:55:15.770Z,99720.91
2022-09-26T16:57:32.502Z,99724.41
2022-09-26T17:04:30.156Z,99720.88
2022-09-26T17:06:31.849Z,99718.44
2022-09-26T17:08:33.676Z,99719.47
2022-09-26T17:10:35.815Z,99728.94
2022-09-26T17:12:37.997Z,99742.72
2022-09-26T17:14:41.737Z,99748.25
2022-09-26T17:19:09.463Z,99762.63
2022-09-26T17:21:11.157Z,99757.03
2022-09-26T17:23:38.141Z,99756.69
2022-09-26T17:25:35.467Z,99760.06
2022-09-26T17:27:37.193Z,99760.81
2022-09-26T17:29:45.154Z,99761.25
2022-09-26T17:31:47.390Z,99773.63
2022-09-26T17:33:51.645Z,99772.56
2022-09-26T17:35:53.412Z,99774.84
2022-09-26T17:37:56.140Z,99767.22
2022-09-26T17:39:57.880Z,99768.44
2022-09-26T17:41:59.644Z,99771.81
2022-09-26T17:44:01.587Z,99771.31
2022-09-26T17:46:03.407Z,99767.28
2022-09-26T17:48:12.429Z,99762.53
2022-09-26T17:50:40.551Z,99759.47
2022-09-26T17:52:42.242Z,99734.38
2022-09-26T17:54:46.463Z,99756.16
2022-09-26T17:56:48.730Z,99749.06
2022-09-26T17:58:50.443Z,99754.84
2022-09-26T18:00:52.348Z,99756.94
2022-09-26T18:03:00.489Z,99748.81
2022-09-26T18:05:08.275Z,99757.09
2022-09-26T18:07:12.348Z,99749.47
2022-09-26T18:09:15.425Z,99751.38
2022-09-26T18:11:18.749Z,99762.53
2022-09-26T18:13:23.180Z,99764.88
2022-09-26T18:15:26.823Z,99756.34
2022-09-26T18:17:28.426Z,99755.25
2022-09-26T18:19:30.098Z,99743.31
2022-09-26T18:21:31.978Z,99752.38
2022-09-26T18:23:52.225Z,99755.66
2022-09-26T18:25:56.867Z,99752.97
2022-09-26T18:28:02.403Z,99746.00
2022-09-26T18:30:04.843Z,99745.03
2022-09-26T18:32:14.209Z,99743.16
2022-09-26T18:34:17.166Z,99734.63
2022-09-26T18:36:18.921Z,99749.41
2022-09-26T18:38:20.677Z,99743.66
2022-09-26T18:40:28.450Z,99740.03
2022-09-26T18:42:30.330Z,99744.50
2022-09-26T18:44:32.578Z,99741.03
2022-09-26T18:46:34.447Z,99735.75
2022-09-26T18:48:36.215Z,99739.94
2022-09-26T18:50:39.670Z,99736.13
2022-09-26T18:52:41.533Z,99743.47
2022-09-26T18:54:44.703Z,99742.91
2022-09-26T18:56:46.394Z,99748.88
2022-09-26T18:58:48.538Z,99743.28
2022-09-26T19:00:58.880Z,99743.47
2022-09-26T19:03:00.612Z,99745.16
2022-09-26T19:05:04.113Z,99742.13
2022-09-26T19:07:06.864Z,99748.91
2022-09-26T19:09:13.261Z,99749.19
2022-09-26T19:11:18.427Z,99750.00
2022-09-26T19:13:24.022Z,99750.84
2022-09-26T19:15:28.497Z,99748.16
2022-09-26T19:17:30.271Z,99748.16
2022-09-26T19:19:32.033Z,99752.31
2022-09-26T19:21:46.221Z,99758.72
2022-09-26T19:23:49.523Z,99748.91
2022-09-26T19:25:51.342Z,99748.06
2022-09-26T19:27:53.209Z,99747.44
2022-09-26T19:30:02.579Z,99749.56
2022-09-26T19:32:08.512Z,99744.69
2022-09-26T19:34:15.323Z,99742.09
2022-09-26T19:36:19.258Z,99741.66
2022-09-26T19:38:26.686Z,99738.94
2022-09-26T19:40:29.116Z,99740.28
2022-09-26T19:42:30.979Z,99745.44
2022-09-26T19:44:32.674Z,99749.09
2022-09-26T19:46:37.198Z,99742.03
2022-09-26T19:48:40.650Z,99750.84
2022-09-26T19:50:44.681Z,99754.59
2022-09-26T19:52:46.800Z,99730.22
2022-09-26T19:54:49.223Z,99742.38
2022-09-26T19:56:51.015Z,99696.88
2022-09-26T19:58:52.773Z,99746.63
2022-09-26T20:00:57.452Z,99748.34
2022-09-26T20:02:59.355Z,99746.53
2022-09-26T20:05:01.295Z,99744.94
2022-09-26T20:07:03.126Z,99737.63
2022-09-26T20:09:10.886Z,99742.94
2022-09-26T20:11:12.595Z,99741.28
2022-09-26T20:13:14.545Z,99743.56
2022-09-26T20:15:18.091Z,99747.22
2022-09-26T20:17:25.891Z,99741.19
2022-09-26T20:19:30.702Z,99738.44
2022-09-26T20:21:33.118Z,99735.97
2022-09-26T20:23:35.698Z,99734.75
2022-09-26T20:25:37.441Z,99735.50
2022-09-26T20:27:39.120Z,99733.66
2022-09-26T20:29:40.873Z,99741.97
2022-09-26T20:31:42.698Z,99741.88
2022-09-26T20:33:44.423Z,99731.06
2022-09-26T20:35:47.175Z,99733.63
2022-09-26T20:37:49.262Z,99726.66
2022-09-26T20:39:51.481Z,99722.34
2022-09-26T20:41:53.493Z,99722.28
2022-09-26T20:43:59.102Z,99707.00
2022-09-26T20:46:09.729Z,99710.50
2022-09-26T20:48:21.131Z,99717.09
2022-09-26T20:50:22.982Z,99713.16
2022-09-26T20:52:27.486Z,99720.63
2022-09-26T20:54:31.663Z,99728.94
2022-09-26T20:56:33.391Z,99727.28
2022-09-26T20:58:35.325Z,99726.50
2022-09-26T21:00:37.133Z,99719.53
2022-09-26T21:02:39.631Z,99724.91
2022-09-26T21:04:41.540Z,99711.31
2022-09-26T21:06:44.452Z,99705.72
2022-09-26T21:08:46.658Z,99712.81
2022-09-26T21:10:48.509Z,99711.88
2022-09-26T21:12:50.615Z,99691.13
2022-09-26T21:14:52.382Z,99706.91
2022-09-26T21:16:54.660Z,99692.88
2022-09-26T21:18:56.481Z,99708.38
2022-09-26T21:21:07.234Z,99711.22
2022-09-26T21:23:10.277Z,99711.28
2022-09-26T21:25:20.127Z,99707.34
2022-09-26T21:27:21.856Z,99695.75
2022-09-26T21:29:23.856Z,99688.97
2022-09-26T21:31:32.044Z,99697.88
2022-09-26T21:33:33.788Z,99694.13
2022-09-26T21:35:35.559Z,99688.31
2022-09-26T21:37:37.311Z,99689.09
2022-09-26T21:39:39.329Z,99694.84
2022-09-26T21:41:41.191Z,99683.91
2022-09-26T21:43:49.098Z,99685.72
2022-09-26T21:45:50.890Z,99678.31
2022-09-26T21:47:52.681Z,99682.69
2022-09-26T21:49:54.440Z,99687.78
2022-09-26T21:52:05.839Z,99685.50
2022-09-26T21:54:12.913Z,99683.84
2022-09-26T21:56:25.779Z,99682.38
2022-09-26T21:58:30.918Z,99685.38
2022-09-26T22:00:32.930Z,99687.56
2022-09-26T22:02:34.750Z,99681.25
2022-09-26T22:04:36.781Z,99682.31
2022-09-26T22:06:38.581Z,99633.28
2022-09-26T22:08:41.182Z,99680.03
2022-09-26T22:10:49.966Z,99679.75
2022-09-26T22:12:52.303Z,99685.88
2022-09-26T22:14:54.028Z,99684.06
2022-09-26T22:16:56.227Z,99665.72
2022-09-26T22:18:58.518Z,99682.28
2022-09-26T22:21:00.221Z,99671.56
2022-09-26T22:23:01.967Z,99686.22
2022-09-26T22:25:05.517Z,99680.28
2022-09-26T22:27:07.182Z,99685.06
2022-09-26T22:29:09.094Z,99687.72
2022-09-26T22:31:11.683Z,99689.19
2022-09-26T22:33:13.511Z,99680.03
2022-09-26T22:35:15.351Z,99682.28
2022-09-26T22:37:17.292Z,99674.78
2022-09-26T22:39:19.240Z,99671.19
2022-09-26T22:41:21.328Z,99664.22
2022-09-26T22:43:23.270Z,99662.56
2022-09-26T22:45:25.008Z,99661.22
2022-09-26T22:47:26.900Z,99645.03
2022-09-26T22:49:28.810Z,99648.00
2022-09-26T22:51:30.506Z,99652.44
2022-09-26T22:53:34.210Z,99652.72
2022-09-26T22:55:35.841Z,99653.56
2022-09-26T22:57:37.628Z,99649.63
2022-09-26T22:59:39.463Z,99649.97
2022-09-26T23:01:41.217Z,99645.53
2022-09-26T23:03:43.155Z,99627.34
2022-09-26T23:05:47.463Z,99639.91
2022-09-26T23:07:55.473Z,99638.31
2022-09-26T23:09:57.639Z,99642.25
2022-09-26T23:11:59.391Z,99640.56
2022-09-26T23:14:01.119Z,99645.19
2022-09-26T23:16:07.711Z,99640.91
2022-09-26T23:18:10.302Z,99633.09
2022-09-26T23:20:12.019Z,99623.63
2022-09-26T23:22:14.044Z,99624.91
2022-09-26T23:24:15.902Z,99628.38
2022-09-26T23:26:20.794Z,99617.28
2022-09-26T23:28:22.534Z,99618.22
2022-09-26T23:30:24.483Z,99615.91
2022-09-26T23:32:26.260Z,99623.03
2022-09-26T23:34:28.013Z,99622.38
2022-09-26T23:36:30.092Z,99620.22
2022-09-26T23:38:32.051Z,99626.59
2022-09-26T23:40:36.132Z,99621.47
2022-09-26T23:42:37.856Z,99619.31
2022-09-26T23:44:39.651Z,99619.50
2022-09-26T23:46:41.558Z,99620.31
2022-09-26T23:48:43.651Z,99622.09
2022-09-26T23:50:46.436Z,99626.22
2022-09-26T23:52:48.501Z,99624.06
2022-09-26T23:54:50.257Z,99631.66
2022-09-26T23:56:51.928Z,99627.31
2022-09-26T23:58:56.288Z,99638.41
